createdAt,value
2022-09-20T00:02:02.064Z,82.19
2022-09-20T00:04:29.982Z,82.35
2022-09-20T00:06:57.727Z,82.91
2022-09-20T00:09:25.487Z,84.26
2022-09-20T00:11:54.760Z,83.60
2022-09-20T00:14:22.506Z,83.81
2022-09-20T00:16:50.377Z,83.39
2022-09-20T00:19:19.819Z,83.54
2022-09-20T00:21:47.524Z,83.52
2022-09-20T00:24:15.772Z,83.67
2022-09-20T00:26:43.485Z,84.01
2022-09-20T00:29:13.755Z,83.71
2022-09-20T00:31:42.811Z,83.23
2022-09-20T00:34:29.576Z,83.37
2022-09-20T00:36:57.283Z,83.17
2022-09-20T00:39:25.166Z,83.24
2022-09-20T00:41:52.942Z,83.29
2022-09-20T00:44:49.097Z,82.81
2022-09-20T00:47:23.344Z,82.61
2022-09-20T00:49:53.414Z,82.82
2022-09-20T00:52:21.572Z,82.44
2022-09-20T00:54:49.902Z,82.61
2022-09-20T00:57:17.994Z,82.39
2022-09-20T00:59:48.812Z,82.13
2022-09-20T01:02:18.623Z,82.12
2022-09-20T01:04:47.443Z,81.68
2022-09-20T01:07:17.761Z,82.08
2022-09-20T01:09:45.552Z,82.09
2022-09-20T01:12:15.968Z,82.66
2022-09-20T01:14:44.641Z,82.74
2022-09-20T01:17:14.223Z,82.75
2022-09-20T01:19:50.248Z,82.63
2022-09-20T01:22:23.693Z,83.07
2022-09-20T01:24:56.421Z,83.01
2022-09-20T01:27:37.628Z,83.07
2022-09-20T01:30:08.071Z,83.23
2022-09-20T01:32:45.715Z,83.20
2022-09-20T01:35:14.285Z,83.28
2022-09-20T01:37:51.093Z,83.24
2022-09-20T01:40:24.727Z,82.83
2022-09-20T01:43:01.732Z,82.81
2022-09-20T01:45:30.796Z,82.99
2022-09-20T01:48:09.254Z,82.90
2022-09-20T01:50:44.174Z,82.65
2022-09-20T01:53:41.431Z,83.05
2022-09-20T01:56:41.236Z,83.20
2022-09-20T01:59:36.545Z,82.97
2022-09-20T02:02:31.954Z,82.83
2022-09-20T02:05:24.356Z,82.77
2022-09-20T02:08:06.856Z,82.34
2022-09-20T02:11:01.756Z,82.42
2022-09-20T02:13:31.739Z,82.41
2022-09-20T02:16:17.377Z,82.16
2022-09-20T02:18:57.874Z,81.96
2022-09-20T02:21:31.600Z,81.74
2022-09-20T02:24:06.004Z,81.46
2022-09-20T02:26:40.405Z,81.41
2022-09-20T02:29:18.373Z,81.03
2022-09-20T02:31:59.521Z,80.81
2022-09-20T02:34:47.857Z,80.97
2022-09-20T02:37:30.657Z,80.58
2022-09-20T02:40:07.383Z,80.31
2022-09-20T02:42:38.830Z,80.31
2022-09-20T02:45:11.004Z,80.38
2022-09-20T02:47:41.607Z,80.29
2022-09-20T02:50:20.984Z,81.04
2022-09-20T02:52:57.939Z,80.76
2022-09-20T02:55:35.902Z,80.74
2022-09-20T02:58:18.890Z,80.78
2022-09-20T03:00:53.930Z,81.43
2022-09-20T03:03:31.990Z,81.52
2022-09-20T03:06:07.260Z,81.69
2022-09-20T03:08:39.989Z,80.92
2022-09-20T03:11:14.505Z,80.95
2022-09-20T03:14:05.371Z,80.73
2022-09-20T03:16:36.934Z,81.47
2022-09-20T03:19:16.694Z,82.15
2022-09-20T03:21:53.285Z,81.88
2022-09-20T03:24:30.058Z,81.72
2022-09-20T03:27:00.670Z,81.50
2022-09-20T03:29:39.186Z,81.53
2022-09-20T03:32:21.695Z,81.09
2022-09-20T03:34:58.472Z,81.41
2022-09-20T03:37:42.409Z,81.56
2022-09-20T03:40:30.481Z,81.57
2022-09-20T03:43:04.056Z,81.38
2022-09-20T03:45:42.253Z,81.76
2022-09-20T03:48:24.887Z,82.21
2022-09-20T03:51:10.941Z,82.78
2022-09-20T03:53:59.957Z,83.24
2022-09-20T03:56:59.050Z,83.37
2022-09-20T03:59:37.641Z,83.46
2022-09-20T04:02:19.265Z,83.25
2022-09-20T04:04:52.091Z,83.10
2022-09-20T04:07:25.217Z,83.45
2022-09-20T04:10:03.203Z,83.81
2022-09-20T04:12:36.758Z,84.59
2022-09-20T04:15:17.548Z,84.37
2022-09-20T04:17:50.734Z,83.68
2022-09-20T04:20:21.898Z,83.13
2022-09-20T04:22:52.817Z,82.67
2022-09-20T04:25:23.684Z,83.14
2022-09-20T04:27:54.532Z,83.06
2022-09-20T04:30:27.858Z,83.43
2022-09-20T04:33:00.629Z,83.90
2022-09-20T04:35:54.890Z,84.60
2022-09-20T04:38:24.887Z,85.30
2022-09-20T04:41:30.728Z,85.46
2022-09-20T04:44:19.997Z,85.59
2022-09-20T04:47:23.185Z,84.95
2022-09-20T04:50:32.590Z,85.01
2022-09-20T04:53:24.716Z,84.43
2022-09-20T04:55:56.934Z,84.32
2022-09-20T04:58:36.950Z,84.53
2022-09-20T05:01:40.698Z,84.98
2022-09-20T05:04:41.188Z,85.33
2022-09-20T05:07:36.641Z,85.12
2022-09-20T05:10:19.161Z,84.71
2022-09-20T05:13:09.068Z,83.99
2022-09-20T05:15:43.389Z,83.17
2022-09-20T05:18:48.404Z,82.27
2022-09-20T05:21:38.769Z,82.10
2022-09-20T05:24:13.307Z,81.57
2022-09-20T05:26:52.849Z,81.85
2022-09-20T05:29:25.832Z,82.27
2022-09-20T05:32:00.415Z,81.73
2022-09-20T05:34:33.224Z,80.99
2022-09-20T05:37:07.955Z,81.48
2022-09-20T05:39:39.480Z,81.41
2022-09-20T05:42:19.348Z,81.65
2022-09-20T05:44:57.006Z,80.87
2022-09-20T05:47:36.615Z,80.78
2022-09-20T05:50:18.044Z,82.07
2022-09-20T05:52:52.858Z,83.05
2022-09-20T05:55:43.574Z,83.82
2022-09-20T05:58:26.928Z,83.44
2022-09-20T06:00:59.250Z,83.13
2022-09-20T06:03:35.181Z,82.21
2022-09-20T06:06:08.351Z,82.56
2022-09-20T06:08:58.027Z,82.77
2022-09-20T06:11:59.808Z,82.33
2022-09-20T06:14:40.335Z,82.10
2022-09-20T06:17:17.375Z,81.44
2022-09-20T06:19:47.787Z,81.29
2022-09-20T06:22:19.208Z,81.20
2022-09-20T06:24:49.469Z,80.80
2022-09-20T06:27:22.001Z,81.14
2022-09-20T06:29:54.429Z,81.24
2022-09-20T06:32:22.292Z,80.79
2022-09-20T06:34:50.113Z,80.12
2022-09-20T06:37:49.190Z,79.87
2022-09-20T06:40:50.661Z,80.90
2022-09-20T06:43:19.358Z,81.73
2022-09-20T06:45:48.628Z,81.35
2022-09-20T06:48:16.427Z,80.81
2022-09-20T06:50:45.391Z,80.38
2022-09-20T06:53:17.592Z,80.16
2022-09-20T06:55:46.109Z,79.39
2022-09-20T06:58:13.816Z,78.70
2022-09-20T07:00:41.600Z,78.43
2022-09-20T07:03:12.624Z,79.14
2022-09-20T07:05:40.684Z,78.54
2022-09-20T07:08:08.429Z,77.93
2022-09-20T07:10:36.531Z,77.85
2022-09-20T07:13:04.247Z,77.25
2022-09-20T07:15:33.479Z,77.98
2022-09-20T07:18:01.295Z,77.78
2022-09-20T07:20:30.412Z,77.04
2022-09-20T07:22:58.322Z,76.89
2022-09-20T07:25:26.077Z,76.14
2022-09-20T07:27:54.109Z,75.51
2022-09-20T07:30:21.944Z,74.35
2022-09-20T07:32:50.302Z,74.12
2022-09-20T07:35:18.209Z,72.68
2022-09-20T07:37:47.883Z,71.03
2022-09-20T07:40:16.485Z,70.12
2022-09-20T07:42:45.977Z,69.37
2022-09-20T07:45:13.712Z,66.88
2022-09-20T07:47:42.111Z,67.88
2022-09-20T07:50:11.650Z,68.33
2022-09-20T07:52:39.445Z,66.00
2022-09-20T07:55:09.676Z,61.86
2022-09-20T07:57:38.311Z,61.50
2022-09-20T08:00:07.976Z,61.83
2022-09-20T08:02:40.271Z,60.62
2022-09-20T08:05:08.718Z,60.11
2022-09-20T08:07:36.500Z,59.74
2022-09-20T08:10:04.820Z,60.51
2022-09-20T08:15:22.771Z,60.97
2022-09-20T08:17:50.599Z,60.69
2022-09-20T08:20:19.671Z,61.74
2022-09-20T08:23:06.408Z,59.81
2022-09-20T08:25:35.989Z,60.10
2022-09-20T08:28:05.584Z,61.37
2022-09-20T08:30:33.556Z,59.33
2022-09-20T08:33:02.196Z,59.23
2022-09-20T08:35:30.604Z,59.35
2022-09-20T08:39:57.083Z,59.94
2022-09-20T08:40:47.253Z,61.73
2022-09-20T08:43:22.302Z,61.72
2022-09-20T08:45:50.817Z,61.06
2022-09-20T08:48:18.977Z,61.92
2022-09-20T08:50:46.664Z,58.70
2022-09-20T08:53:20.978Z,58.90
2022-09-20T08:55:49.657Z,57.71
2022-09-20T08:58:19.353Z,55.95
2022-09-20T09:00:47.834Z,56.12
2022-09-20T09:03:17.907Z,57.58
2022-09-20T09:05:47.589Z,58.31
2022-09-20T09:08:17.090Z,56.75
2022-09-20T09:10:47.200Z,54.96
2022-09-20T09:13:21.830Z,55.63
2022-09-20T09:15:54.076Z,52.72
2022-09-20T09:18:21.803Z,55.55
2022-09-20T09:20:49.628Z,54.72
2022-09-20T09:23:25.185Z,55.73
2022-09-20T09:25:53.896Z,52.22
2022-09-20T09:28:24.965Z,52.03
2022-09-20T09:30:52.710Z,49.95
2022-09-20T09:33:26.602Z,50.67
2022-09-20T09:36:00.159Z,51.83
2022-09-20T09:38:30.565Z,54.96
2022-09-20T09:41:00.033Z,54.38
2022-09-20T09:43:32.338Z,53.71
2022-09-20T09:46:19.031Z,52.15
2022-09-20T09:48:50.115Z,51.55
2022-09-20T09:51:20.152Z,49.38
2022-09-20T09:53:49.641Z,54.51
2022-09-20T09:56:27.020Z,54.10
2022-09-20T09:59:10.550Z,55.31
2022-09-20T10:01:49.007Z,55.89
2022-09-20T10:04:19.805Z,51.43
2022-09-20T10:06:52.433Z,51.39
2022-09-20T10:09:30.301Z,52.10
2022-09-20T10:12:17.636Z,52.63
2022-09-20T10:15:01.282Z,49.83
2022-09-20T10:17:46.521Z,49.57
2022-09-20T10:20:31.089Z,50.59
2022-09-20T10:23:39.378Z,51.04
2022-09-20T10:26:00.783Z,52.02
2022-09-20T10:28:48.294Z,53.88
2022-09-20T10:31:31.127Z,50.00
2022-09-20T10:34:10.710Z,49.82
2022-09-20T10:36:44.415Z,51.97
2022-09-20T10:39:15.058Z,49.48
2022-09-20T10:42:06.857Z,44.71
2022-09-20T10:44:54.142Z,46.26
2022-09-20T10:47:28.806Z,46.77
2022-09-20T10:50:01.694Z,46.64
2022-09-20T10:52:38.472Z,46.02
2022-09-20T10:55:28.101Z,46.84
2022-09-20T10:58:19.083Z,46.13
2022-09-20T11:00:52.714Z,47.04
2022-09-20T11:03:32.901Z,48.20
2022-09-20T11:06:10.835Z,49.71
2022-09-20T11:08:39.254Z,47.33
2022-09-20T11:11:10.360Z,49.61
2022-09-20T11:13:42.017Z,48.12
2022-09-20T11:16:14.679Z,46.16
2022-09-20T11:18:47.644Z,45.88
2022-09-20T11:21:20.050Z,46.09
2022-09-20T11:23:52.626Z,46.32
2022-09-20T11:26:26.698Z,45.55
2022-09-20T11:28:56.151Z,46.49
2022-09-20T11:31:27.345Z,46.12
2022-09-20T11:33:59.839Z,47.70
2022-09-20T11:36:33.299Z,46.91
2022-09-20T11:39:05.165Z,46.74
2022-09-20T11:41:33.373Z,44.27
2022-09-20T11:44:06.911Z,45.34
2022-09-20T11:46:36.967Z,47.41
2022-09-20T11:49:12.434Z,47.52
2022-09-20T11:52:21.852Z,47.83
2022-09-20T11:55:11.989Z,47.81
2022-09-20T11:57:40.120Z,49.61
2022-09-20T12:00:10.142Z,48.57
2022-09-20T12:02:46.197Z,46.46
2022-09-20T12:05:28.264Z,45.43
2022-09-20T12:07:57.493Z,44.61
2022-09-20T12:10:27.566Z,45.23
2022-09-20T12:12:58.464Z,43.35
2022-09-20T12:15:28.653Z,45.33
2022-09-20T12:18:37.857Z,44.02
2022-09-20T12:21:16.357Z,40.84
2022-09-20T12:24:23.565Z,38.57
2022-09-20T12:26:55.832Z,37.37
2022-09-20T12:30:15.001Z,33.51
2022-09-20T12:32:48.420Z,30.78
2022-09-20T12:35:55.847Z,31.17
2022-09-20T12:38:31.219Z,36.26
2022-09-20T12:41:03.871Z,39.34
2022-09-20T12:43:33.230Z,39.30
2022-09-20T12:46:06.333Z,38.25
2022-09-20T12:48:38.406Z,38.02
2022-09-20T12:51:21.585Z,40.03
2022-09-20T12:54:08.066Z,40.47
2022-09-20T12:56:37.543Z,41.24
2022-09-20T12:59:07.391Z,41.79
2022-09-20T13:01:40.441Z,41.04
2022-09-20T13:04:55.212Z,42.84
2022-09-20T13:07:43.781Z,43.36
2022-09-20T13:10:29.095Z,42.84
2022-09-20T13:13:01.203Z,43.83
2022-09-20T13:15:29.123Z,43.73
2022-09-20T13:17:59.064Z,44.41
2022-09-20T13:20:29.900Z,43.29
2022-09-20T13:23:00.285Z,44.86
2022-09-20T13:25:29.822Z,44.26
2022-09-20T13:28:04.207Z,41.41
2022-09-20T13:30:32.863Z,39.91
2022-09-20T13:33:17.305Z,36.97
2022-09-20T13:35:47.012Z,34.56
2022-09-20T13:38:16.051Z,33.15
2022-09-20T13:40:47.433Z,31.48
2022-09-20T13:43:25.280Z,32.21
2022-09-20T13:45:55.040Z,30.99
2022-09-20T13:48:25.593Z,29.05
2022-09-20T13:50:53.938Z,31.77
2022-09-20T13:53:40.066Z,35.99
2022-09-20T13:56:11.767Z,34.93
2022-09-20T13:58:39.613Z,35.18
2022-09-20T14:01:09.483Z,36.45
2022-09-20T14:03:37.538Z,36.40
2022-09-20T14:06:08.401Z,36.90
2022-09-20T14:08:38.991Z,37.48
2022-09-20T14:11:08.554Z,39.84
2022-09-20T14:13:40.097Z,35.91
2022-09-20T14:16:08.267Z,30.49
2022-09-20T14:18:36.545Z,30.43
2022-09-20T14:21:06.861Z,29.54
2022-09-20T14:23:34.707Z,29.34
2022-09-20T14:26:10.243Z,27.69
2022-09-20T14:28:39.345Z,29.51
2022-09-20T14:31:08.861Z,30.17
2022-09-20T14:33:42.127Z,30.33
2022-09-20T14:36:14.551Z,32.98
2022-09-20T14:38:44.464Z,30.87
2022-09-20T14:41:12.768Z,31.04
2022-09-20T14:43:42.232Z,34.68
2022-09-20T14:46:18.642Z,36.72
2022-09-20T14:48:46.466Z,37.24
2022-09-20T14:51:25.420Z,37.04
2022-09-20T14:53:55.071Z,36.71
2022-09-20T14:56:34.698Z,37.29
2022-09-20T14:59:19.757Z,38.40
2022-09-20T15:01:57.068Z,39.25
2022-09-20T15:04:26.852Z,40.24
2022-09-20T15:06:55.316Z,39.84
2022-09-20T15:09:23.799Z,38.53
2022-09-20T15:12:07.299Z,38.72
2022-09-20T15:14:38.075Z,38.44
2022-09-20T15:17:06.288Z,39.54
2022-09-20T15:19:34.460Z,39.05
2022-09-20T15:22:02.272Z,39.64
2022-09-20T15:24:29.999Z,40.21
2022-09-20T15:26:57.900Z,41.90
2022-09-20T15:29:26.014Z,43.03
2022-09-20T15:31:55.236Z,43.10
2022-09-20T15:34:23.165Z,44.12
2022-09-20T15:36:51.640Z,44.59
2022-09-20T15:39:21.008Z,44.41
2022-09-20T15:41:49.433Z,45.99
2022-09-20T15:44:17.727Z,47.18
2022-09-20T15:46:45.493Z,46.93
2022-09-20T15:49:14.564Z,46.83
2022-09-20T15:51:42.303Z,47.13
2022-09-20T15:54:15.837Z,47.41
2022-09-20T15:56:43.603Z,47.08
2022-09-20T15:59:13.334Z,46.78
2022-09-20T16:01:42.310Z,45.40
2022-09-20T16:04:11.110Z,46.13
2022-09-20T16:06:41.330Z,44.36
2022-09-20T16:09:09.497Z,44.41
2022-09-20T16:11:38.694Z,45.58
2022-09-20T16:14:06.832Z,46.39
2022-09-20T16:16:39.929Z,45.99
2022-09-20T16:19:23.625Z,46.27
2022-09-20T16:21:59.118Z,45.31
2022-09-20T16:24:28.586Z,45.32
2022-09-20T16:26:56.655Z,46.23
2022-09-20T16:29:25.775Z,47.11
2022-09-20T16:31:54.628Z,47.21
2022-09-20T16:34:23.901Z,46.80
2022-09-20T16:36:55.614Z,47.08
2022-09-20T16:39:26.151Z,47.36
2022-09-20T16:41:53.951Z,48.30
2022-09-20T16:44:21.653Z,49.10
2022-09-20T16:46:49.464Z,49.41
2022-09-20T16:49:17.648Z,51.09
2022-09-20T16:51:46.286Z,53.54
2022-09-20T16:54:17.102Z,54.69
2022-09-20T16:56:46.602Z,55.83
2022-09-20T16:59:15.596Z,57.83
2022-09-20T17:01:44.348Z,58.33
2022-09-20T17:04:13.984Z,59.74
2022-09-20T17:06:43.198Z,60.41
2022-09-20T17:09:11.461Z,61.46
2022-09-20T17:11:43.622Z,62.71
2022-09-20T17:14:11.390Z,63.64
2022-09-20T17:16:40.777Z,64.18
2022-09-20T17:19:10.975Z,64.30
2022-09-20T17:21:42.359Z,64.70
2022-09-20T17:24:10.450Z,65.61
2022-09-20T17:26:40.855Z,65.67
2022-09-20T17:29:10.650Z,65.65
2022-09-20T17:31:41.630Z,65.93
2022-09-20T17:34:10.960Z,66.22
2022-09-20T17:36:40.428Z,66.96
2022-09-20T17:39:09.981Z,66.12
2022-09-20T17:41:38.364Z,65.83
2022-09-20T17:44:08.269Z,64.73
2022-09-20T17:46:38.035Z,65.92
2022-09-20T17:49:07.594Z,66.99
2022-09-20T17:51:38.197Z,66.36
2022-09-20T17:54:06.209Z,66.08
2022-09-20T17:56:35.652Z,66.96
2022-09-20T17:59:04.862Z,67.43
2022-09-20T18:01:35.522Z,67.92
2022-09-20T18:04:04.490Z,67.84
2022-09-20T18:06:34.277Z,68.07
2022-09-20T18:09:04.534Z,68.13
2022-09-20T18:11:33.802Z,68.07
2022-09-20T18:14:02.053Z,67.90
2022-09-20T18:16:30.867Z,68.96
2022-09-20T18:19:00.248Z,68.52
2022-09-20T18:21:30.052Z,69.01
2022-09-20T18:23:58.977Z,69.09
2022-09-20T18:26:29.995Z,69.94
2022-09-20T18:29:00.201Z,71.20
2022-09-20T18:31:32.367Z,70.18
2022-09-20T18:34:01.946Z,70.67
2022-09-20T18:36:30.907Z,71.04
2022-09-20T18:38:59.500Z,72.13
2022-09-20T18:41:29.046Z,73.20
2022-09-20T18:43:57.135Z,73.74
2022-09-20T18:46:26.858Z,74.67
2022-09-20T18:48:55.827Z,74.30
2022-09-20T18:51:25.925Z,75.00
2022-09-20T18:53:53.861Z,75.31
2022-09-20T18:56:24.043Z,75.44
2022-09-20T18:58:52.848Z,75.26
2022-09-20T19:01:42.693Z,75.11
2022-09-20T19:04:24.362Z,74.34
2022-09-20T19:06:59.101Z,75.03
2022-09-20T19:09:32.528Z,75.47
2022-09-20T19:12:02.783Z,75.97
2022-09-20T19:14:48.317Z,76.51
2022-09-20T19:17:20.278Z,75.92
2022-09-20T19:19:51.588Z,74.68
2022-09-20T19:22:29.629Z,74.05
2022-09-20T19:25:12.409Z,74.85
2022-09-20T19:27:41.208Z,75.11
2022-09-20T19:30:13.101Z,75.22
2022-09-20T19:32:41.322Z,75.47
2022-09-20T19:35:17.234Z,75.46
2022-09-20T19:37:58.079Z,75.82
2022-09-20T19:40:31.238Z,75.98
2022-09-20T19:43:14.420Z,76.02
2022-09-20T19:45:49.550Z,76.66
2022-09-20T19:48:20.401Z,76.63
2022-09-20T19:50:52.138Z,76.66
2022-09-20T19:53:24.117Z,76.62
2022-09-20T19:55:55.173Z,77.46
2022-09-20T19:58:23.770Z,76.95
2022-09-20T20:00:52.579Z,77.34
2022-09-20T20:03:23.512Z,77.78
2022-09-20T20:05:56.092Z,77.90
2022-09-20T20:08:32.849Z,77.23
2022-09-20T20:11:06.175Z,78.18
2022-09-20T20:13:54.667Z,78.29
2022-09-20T20:16:28.169Z,77.44
2022-09-20T20:19:07.045Z,77.12
2022-09-20T20:21:41.190Z,77.22
2022-09-20T20:24:20.555Z,77.19
2022-09-20T20:26:48.281Z,77.35
2022-09-20T20:29:16.013Z,77.72
2022-09-20T20:31:43.790Z,77.73
2022-09-20T20:34:16.012Z,78.09
2022-09-20T20:36:44.294Z,77.96
2022-09-20T20:39:13.368Z,78.18
2022-09-20T20:41:41.536Z,77.72
2022-09-20T20:44:09.712Z,77.15
2022-09-20T20:46:38.060Z,76.31
2022-09-20T20:49:06.029Z,76.90
2022-09-20T20:51:33.860Z,77.14
2022-09-20T20:54:01.598Z,77.10
2022-09-20T20:56:31.282Z,77.12
2022-09-20T20:59:00.610Z,77.71
2022-09-20T21:01:30.508Z,78.11
2022-09-20T21:03:59.566Z,77.83
2022-09-20T21:06:28.599Z,77.78
2022-09-20T21:08:56.661Z,78.21
2022-09-20T21:11:25.957Z,78.90
2022-09-20T21:13:57.073Z,78.61
2022-09-20T21:16:26.163Z,78.94
2022-09-20T21:18:54.008Z,79.10
2022-09-20T21:21:23.472Z,78.30
2022-09-20T21:23:52.787Z,78.40
2022-09-20T21:26:21.278Z,78.74
2022-09-20T21:28:52.070Z,79.80
2022-09-20T21:31:23.095Z,80.34
2022-09-20T21:33:51.088Z,80.45
2022-09-20T21:36:20.407Z,81.01
2022-09-20T21:38:48.292Z,81.01
2022-09-20T21:41:17.649Z,80.34
2022-09-20T21:43:46.383Z,79.91
2022-09-20T21:46:14.882Z,79.72
2022-09-20T21:48:44.184Z,79.67
2022-09-20T21:51:13.741Z,79.82
2022-09-20T21:53:42.249Z,80.20
2022-09-20T21:56:11.401Z,80.61
2022-09-20T21:58:39.983Z,80.92
2022-09-20T22:01:11.556Z,81.04
2022-09-20T22:03:40.784Z,81.04
2022-09-20T22:06:12.049Z,81.62
2022-09-20T22:08:41.352Z,81.83
2022-09-20T22:11:14.901Z,82.03
2022-09-20T22:13:43.536Z,82.50
2022-09-20T22:16:12.856Z,82.08
2022-09-20T22:18:42.022Z,81.46
2022-09-20T22:21:13.018Z,81.10
2022-09-20T22:23:41.005Z,81.28
2022-09-20T22:26:10.479Z,81.34
2022-09-20T22:28:38.725Z,80.72
2022-09-20T22:31:08.473Z,79.32
2022-09-20T22:33:36.904Z,78.65
2022-09-20T22:36:08.268Z,79.49
2022-09-20T22:38:37.483Z,80.08
2022-09-20T22:41:06.088Z,80.43
2022-09-20T22:43:34.363Z,80.65
2022-09-20T22:46:06.089Z,80.59
2022-09-20T22:48:34.512Z,80.45
2022-09-20T22:51:02.676Z,80.10
2022-09-20T22:53:31.365Z,80.14
2022-09-20T22:56:08.480Z,80.20
2022-09-20T22:58:37.570Z,80.91
2022-09-20T23:01:07.614Z,81.03
2022-09-20T23:03:35.828Z,81.72
2022-09-20T23:06:04.124Z,81.93
2022-09-20T23:08:33.186Z,82.12
2022-09-20T23:11:03.686Z,82.32
2022-09-20T23:13:33.259Z,81.92
2022-09-20T23:16:00.988Z,81.71
2022-09-20T23:18:28.700Z,81.20
2022-09-20T23:21:00.337Z,80.17
2022-09-20T23:23:28.108Z,79.81
2022-09-20T23:25:56.137Z,79.83
2022-09-20T23:28:27.270Z,79.70
2022-09-20T23:31:04.528Z,79.20
2022-09-20T23:33:32.780Z,79.02
2022-09-20T23:36:00.801Z,79.93
2022-09-20T23:38:28.581Z,80.06
2022-09-20T23:40:56.472Z,80.77
2022-09-20T23:43:24.360Z,81.04
2022-09-20T23:45:52.099Z,81.20
2022-09-20T23:48:21.204Z,80.90
2022-09-20T23:50:48.965Z,81.15
2022-09-20T23:53:16.745Z,81.25
2022-09-20T23:55:44.477Z,80.63
2022-09-20T23:58:12.465Z,79.92
